Humboldt, Nevada
Current Conditions -  °F | °C
As of 1:56 AM on Thursday 29 Jan 2015 (Local Time) from KWMC Reporting Station
Clear Clear  
Wind Chill: 30°   Ceiling: Unl
Heat Index: 36°   Visibility: 10mi
Dew Point: 32°   Wind: 8mph
Humidity: 86%   Direction: 50°NE
Pressure: 30.32"   Gusts: NA
Location:  40.601°N, 117.984°W
Report Text: KWMC 290956Z AUTO 05007KT 10SM CLR 02/00 A3032 RMK AO2 SLP265 T00220000
Loading
Personal Weather Stations






























Interactive Weather Map New forecast layout! Learn more

10-Day Weather Forecast

Advertisements
Track Severe Weather on mobile